Terminal Aerodrome Forecast
Issued by NWS Tulsa, OK

Home | Current Version | Previous Version | Text Only | Print | Product List | Glossary On
Versions: 1 2 3 4 5 6 7 8 9 10 11 12 13 14 15 16 17 18 19 20 21 22
526
FTUS44 KTSA 191720
TAFFSM
TAF
KFSM 191720Z 1918/2018 VRB05KT P6SM SKC
     FM200000 09003KT P6SM FEW250
     FM201500 14005KT P6SM SKC=

USA.gov is the U.S. government's official web portal to all federal, state and local government web resources and services.